NCAR-RAP Real-Time Weather Data

Output produced by METARs form (17 September 2019  17:24 UTC)
found at http://weather.rap.ucar.edu/surface/
 
KHSV 171653Z 00000KT 10SM SCT055 34/19 A3005 RMK AO2 SLP166 T03440194 $
KHSV 171553Z 31004KT 10SM FEW045 33/20 A3006 RMK AO2 SLP171 T03280200 $
KHSV 171453Z 00000KT 10SM CLR 30/20 A3006 RMK AO2 SLP171 T03000200 51005 $
KHSV 171353Z 00000KT 10SM CLR 26/21 A3006 RMK AO2 SLP172 T02610211 $
KHSV 171253Z 00000KT 10SM CLR 23/21 A3005 RMK AO2 SLP169 T02280206
KHSV 171153Z 00000KT 7SM CLR 20/19 A3005 RMK AO2 SLP167 T02000194 10228 20189 53015
KHSV 171053Z 24003KT 9SM CLR 19/19 A3003 RMK AO2 SLP160 T01940189
KHSV 170953Z AUTO 00000KT 10SM CLR 21/19 A3001 RMK AO2 SLP153 T02060189
KHSV 170853Z AUTO 32003KT 10SM CLR 21/19 A3000 RMK AO2 SLP151 T02060194 56005
KHSV 170653Z AUTO 00000KT 10SM CLR 22/19 A3001 RMK AO2 SLP154 T02220194
KHSV 170553Z AUTO 13004KT 10SM CLR 22/20 A3002 RMK AO2 SLP156 T02220200 10311 20217 403780194 58001
KHSV 170453Z 00000KT 10SM CLR 24/19 A3002 RMK AO2 SLP156 T02390189
KHSV 170253Z 00000KT 10SM CLR 24/19 A3002 RMK AO2 SLP158 T02440194 53006
KHSV 170053Z 24003KT 10SM CLR 27/19 A3001 RMK AO2 SLP153 T02720194
KHSV 162353Z 02004KT 10SM CLR 31/17 A3000 RMK AO2 SLP151 T03110167 10378 20311 56004
KHSV 162253Z 01006KT 10SM FEW080 36/16 A3000 RMK AO2 SLP151 T03560156
KHSV 162153Z VRB05KT 10SM FEW080 37/16 A3001 RMK AO2 SLP152 T03670161